| time (UTC) | temp F | wind direction | speed MPH | gust MPH | rain 1hr in | rain 24hr in | rain mn in | humidity % | barometer mb |
| 20260510170009 | 60 | 9 | 6.0 | 14.0 | 0.00 | 0.00 | 0.00 | 64 | 1010.9 |
| 20260510164511 | 60 | 14 | 7.0 | 16.0 | 0.00 | 0.00 | 0.00 | 63 | 1010.7 |
| 20260510163009 | 61 | 5 | 7.0 | 16.0 | 0.00 | 0.00 | 0.00 | 62 | 1011.1 |
| 20260510161510 | 62 | 17 | 6.0 | 15.0 | 0.00 | 0.00 | 0.00 | 61 | 1011.0 |
| 20260510160011 | 63 | 4 | 4.0 | 13.0 | 0.00 | 0.00 | 0.00 | 59 | 1011.1 |
| 20260510154509 | 63 | 351 | 6.0 | 13.0 | 0.00 | 0.00 | 0.00 | 58 | 1011.5 |
| 20260510153009 | 65 | 25 | 4.0 | 13.0 | 0.00 | 0.00 | 0.00 | 55 | 1011.5 |
| 20260510150010 | 64 | 35 | 4.0 | 11.0 | 0.00 | 0.00 | 0.00 | 56 | 1011.7 |
| 20260510144510 | 65 | 13 | 4.0 | 9.0 | 0.00 | 0.00 | 0.00 | 55 | 1011.9 |
| 20260510143010 | 65 | 342 | 5.0 | 11.0 | 0.00 | 0.00 | 0.00 | 55 | 1011.8 |
| 20260510141511 | 64 | 6 | 5.0 | 13.0 | 0.00 | 0.00 | 0.00 | 57 | 1012.3 |
| 20260510140011 | 65 | 5 | 3.0 | 11.0 | 0.00 | 0.00 | 0.00 | 55 | 1012.0 |
| 20260510134510 | 65 | 358 | 4.0 | 11.0 | 0.00 | 0.00 | 0.00 | 55 | 1012.4 |
| 20260510133010 | 67 | 337 | 4.0 | 11.0 | 0.00 | 0.00 | 0.00 | 54 | 1012.4 |
| 20260510131511 | 67 | 358 | 4.0 | 11.0 | 0.00 | 0.00 | 0.00 | 54 | 1012.8 |
| 20260510130010 | 66 | 337 | 4.0 | 11.0 | 0.00 | 0.00 | 0.00 | 55 | 1012.8 |
| 20260510124511 | 66 | 333 | 4.0 | 11.0 | 0.00 | 0.00 | 0.00 | 56 | 1012.9 |
| 20260510123011 | 67 | 9 | 4.0 | 11.0 | 0.00 | 0.00 | 0.00 | 57 | 1013.3 |
| 20260510121509 | 65 | 356 | 4.0 | 13.0 | 0.00 | 0.00 | 0.00 | 55 | 1013.4 |
| 20260510120009 | 65 | 351 | 3.0 | 11.0 | 0.00 | 0.00 | 0.00 | 57 | 1013.6 |
| 20260510113009 | 65 | 324 | 4.0 | 11.0 | 0.00 | 0.00 | 0.00 | 59 | 1013.8 |
| 20260510111509 | 65 | 325 | 3.0 | 8.0 | 0.00 | 0.00 | 0.00 | 59 | 1014.0 |
| 20260510104511 | 63 | 16 | 4.0 | 8.0 | 0.00 | 0.00 | 0.00 | 63 | 1014.3 |
| 20260510103009 | 64 | 7 | 3.0 | 11.0 | 0.00 | 0.00 | 0.00 | 63 | 1014.3 |
| 20260510101512 | 64 | 338 | 4.0 | 11.0 | 0.00 | 0.00 | 0.00 | 62 | 1014.5 |
| 20260510093009 | 63 | 323 | 3.0 | 8.0 | 0.00 | 0.00 | 0.00 | 65 | 1014.5 |
| 20260510091509 | 63 | 350 | 2.0 | 7.0 | 0.00 | 0.00 | 0.00 | 66 | 1014.8 |
| 20260510090010 | 63 | 326 | 2.0 | 6.0 | 0.00 | 0.00 | 0.00 | 66 | 1014.8 |
| 20260510084510 | 60 | 342 | 2.0 | 6.0 | 0.00 | 0.00 | 0.00 | 72 | 1014.6 |
| 20260510083010 | 59 | 337 | 2.0 | 8.0 | 0.00 | 0.00 | 0.00 | 73 | 1014.9 |
| 20260510081511 | 59 | 334 | 3.0 | 8.0 | 0.00 | 0.00 | 0.00 | 73 | 1015.0 |
| 20260510080009 | 58 | 320 | 3.0 | 7.0 | 0.00 | 0.00 | 0.00 | 75 | 1015.0 |
| 20260510073009 | 56 | 346 | 2.0 | 6.0 | 0.00 | 0.00 | 0.00 | 79 | 1015.0 |
| 20260510071511 | 54 | 352 | 3.0 | 7.0 | 0.00 | 0.00 | 0.00 | 82 | 1015.2 |
| 20260510064509 | 53 | 337 | 1.0 | 4.0 | 0.00 | 0.00 | 0.00 | 83 | 1015.2 |
| 20260510063010 | 52 | 319 | 1.0 | 4.0 | 0.00 | 0.00 | 0.00 | 86 | 1015.0 |
| 20260510061512 | 51 | 278 | 1.0 | 4.0 | 0.00 | 0.00 | 0.00 | 88 | 1015.3 |
| 20260510060012 | 50 | 295 | 0.0 | 2.0 | 0.00 | 0.00 | 0.00 | 90 | 1015.2 |
| 20260510053012 | 48 | 329 | 0.0 | 2.0 | 0.00 | 0.00 | 0.00 | 93 | 1015.2 |
| 20260510051515 | 47 | 325 | 1.0 | 4.0 | 0.00 | 0.00 | 0.00 | 94 | 1015.2 |
| 20260510050012 | 47 | 321 | 1.0 | 4.0 | 0.00 | 0.00 | 0.00 | 94 | 1015.2 |
| 20260510044512 | 46 | 303 | 1.0 | 2.0 | 0.00 | 0.00 | 0.00 | 95 | 1015.0 |
| 20260510041513 | 45 | 290 | 0.0 | 2.0 | 0.00 | 0.00 | 0.00 | 95 | 1015.3 |
| 20260510034512 | 45 | 306 | 0.0 | 2.0 | 0.00 | 0.00 | 0.00 | 94 | 1015.0 |
| 20260510033011 | 46 | 310 | 0.0 | 2.0 | 0.00 | 0.00 | 0.00 | 94 | 1015.1 |
| 20260510031513 | 46 | 0 | 0.0 | 0.0 | 0.00 | 0.00 | 0.00 | 93 | 1015.3 |
| 20260510030012 | 46 | 0 | 0.0 | 0.0 | 0.00 | 0.00 | 0.00 | 93 | 1015.4 |
| 20260510023012 | 46 | 0 | 0.0 | 0.0 | 0.00 | 0.00 | 0.00 | 91 | 1015.3 |
| 20260510021512 | 46 | 0 | 0.0 | 0.0 | 0.00 | 0.00 | 0.00 | 90 | 1015.4 |
| 20260510020012 | 47 | 277 | 0.0 | 2.0 | 0.00 | 0.00 | 0.00 | 89 | 1015.5 |
| 20260510014512 | 47 | 0 | 0.0 | 0.0 | 0.00 | 0.00 | 0.00 | 89 | 1015.2 |
| 20260510013011 | 47 | 0 | 0.0 | 0.0 | 0.00 | 0.00 | 0.00 | 88 | 1015.6 |
| 20260510010012 | 48 | 0 | 0.0 | 0.0 | 0.00 | 0.00 | 0.00 | 87 | 1015.5 |
| 20260510003010 | 50 | 0 | 0.0 | 0.0 | 0.00 | 0.00 | 0.00 | 83 | 1015.9 |
| 20260510001512 | 51 | 0 | 0.0 | 2.0 | 0.00 | 0.00 | 0.00 | 82 | 1016.0 |
| 20260510000011 | 51 | 322 | 0.0 | 2.0 | 0.00 | 0.00 | 0.00 | 82 | 1016.2 |
| 20260509234511 | 52 | 37 | 0.0 | 2.0 | 0.00 | 0.00 | 0.00 | 80 | 1016.2 |
| 20260509231512 | 51 | 0 | 0.0 | 0.0 | 0.00 | 0.00 | 0.00 | 80 | 1016.4 |
| 20260509230011 | 52 | 0 | 0.0 | 0.0 | 0.00 | 0.00 | 0.00 | 80 | 1016.6 |
| 20260509224510 | 52 | 0 | 0.0 | 0.0 | 0.00 | 0.00 | 0.00 | 80 | 1016.6 |
| 20260509223010 | 53 | 0 | 0.0 | 0.0 | 0.00 | 0.00 | 0.00 | 79 | 1016.6 |
| 20260509221511 | 53 | 0 | 0.0 | 0.0 | 0.00 | 0.00 | 0.00 | 77 | 1016.8 |
| 20260509220010 | 54 | 0 | 0.0 | 0.0 | 0.00 | 0.00 | 0.00 | 72 | 1016.7 |
| 20260509214512 | 56 | 12 | 0.0 | 2.0 | 0.00 | 0.00 | 0.00 | 69 | 1016.9 |
| 20260509211510 | 57 | 341 | 0.0 | 2.0 | 0.00 | 0.00 | 0.00 | 67 | 1016.8 |
| 20260509204512 | 57 | 0 | 0.0 | 0.0 | 0.00 | 0.00 | 0.00 | 67 | 1016.9 |
| 20260509203010 | 58 | 0 | 0.0 | 0.0 | 0.00 | 0.00 | 0.00 | 64 | 1017.2 |
| 20260509201511 | 59 | 0 | 0.0 | 0.0 | 0.00 | 0.00 | 0.00 | 61 | 1017.4 |
| 20260509200011 | 60 | 0 | 0.0 | 0.0 | 0.00 | 0.00 | 0.00 | 60 | 1017.2 |
| 20260509194511 | 61 | 300 | 0.0 | 2.0 | 0.00 | 0.00 | 0.00 | 57 | 1017.0 |
| 20260509193011 | 62 | 286 | 0.0 | 2.0 | 0.00 | 0.00 | 0.00 | 56 | 1017.1 |
| 20260509191511 | 63 | 300 | 1.0 | 2.0 | 0.00 | 0.00 | 0.00 | 54 | 1016.9 |
| 20260509190010 | 64 | 314 | 0.0 | 2.0 | 0.00 | 0.00 | 0.00 | 51 | 1016.5 |
| 20260509184511 | 65 | 323 | 0.0 | 2.0 | 0.00 | 0.00 | 0.00 | 49 | 1016.6 |
| 20260509183011 | 66 | 312 | 1.0 | 4.0 | 0.00 | 0.00 | 0.00 | 48 | 1016.8 |
| 20260509181512 | 66 | 312 | 1.0 | 4.0 | 0.00 | 0.00 | 0.00 | 48 | 1016.7 |
| 20260509180011 | 66 | 333 | 2.0 | 4.0 | 0.00 | 0.00 | 0.00 | 46 | 1016.7 |
| 20260509174511 | 65 | 350 | 1.0 | 4.0 | 0.00 | 0.00 | 0.00 | 47 | 1016.4 |
| 20260509173010 | 66 | 338 | 1.0 | 4.0 | 0.00 | 0.00 | 0.00 | 46 | 1016.6 |